sensor_id;sensor_type;location;lat;lon;timestamp;P1;durP1;ratioP1;P2;durP2;ratioP2
68947;SDS011;55996;49.546;7.400;2023-08-30T00:00:28;8.30;;;4.53;;
68947;SDS011;55996;49.546;7.400;2023-08-30T00:02:53;4.93;;;4.40;;
68947;SDS011;55996;49.546;7.400;2023-08-30T00:05:19;4.93;;;4.53;;
68947;SDS011;55996;49.546;7.400;2023-08-30T00:07:44;7.33;;;5.10;;
68947;SDS011;55996;49.546;7.400;2023-08-30T00:10:10;5.57;;;5.07;;
68947;SDS011;55996;49.546;7.400;2023-08-30T00:12:35;5.33;;;4.83;;
68947;SDS011;55996;49.546;7.400;2023-08-30T00:15:01;6.23;;;4.80;;
68947;SDS011;55996;49.546;7.400;2023-08-30T00:17:26;7.90;;;5.10;;
68947;SDS011;55996;49.546;7.400;2023-08-30T00:19:52;6.10;;;5.60;;
68947;SDS011;55996;49.546;7.400;2023-08-30T00:22:20;8.37;;;5.23;;
68947;SDS011;55996;49.546;7.400;2023-08-30T00:24:46;5.23;;;4.73;;
68947;SDS011;55996;49.546;7.400;2023-08-30T00:27:11;5.87;;;5.27;;
68947;SDS011;55996;49.546;7.400;2023-08-30T00:29:37;6.57;;;5.17;;
68947;SDS011;55996;49.546;7.400;2023-08-30T00:32:02;5.63;;;4.90;;
68947;SDS011;55996;49.546;7.400;2023-08-30T00:34:28;4.87;;;4.47;;
68947;SDS011;55996;49.546;7.400;2023-08-30T00:36:53;5.97;;;5.30;;
68947;SDS011;55996;49.546;7.400;2023-08-30T00:39:19;6.20;;;5.60;;
68947;SDS011;55996;49.546;7.400;2023-08-30T00:41:44;6.37;;;5.77;;
68947;SDS011;55996;49.546;7.400;2023-08-30T00:44:10;6.77;;;5.50;;
68947;SDS011;55996;49.546;7.400;2023-08-30T00:46:35;5.97;;;5.23;;
68947;SDS011;55996;49.546;7.400;2023-08-30T00:49:01;5.80;;;5.27;;
68947;SDS011;55996;49.546;7.400;2023-08-30T00:51:28;5.07;;;4.67;;
68947;SDS011;55996;49.546;7.400;2023-08-30T00:53:54;5.50;;;5.00;;
68947;SDS011;55996;49.546;7.400;2023-08-30T00:56:20;5.73;;;5.13;;
68947;SDS011;55996;49.546;7.400;2023-08-30T00:58:47;7.17;;;5.40;;
68947;SDS011;55996;49.546;7.400;2023-08-30T01:01:14;5.60;;;5.03;;
68947;SDS011;55996;49.546;7.400;2023-08-30T01:03:43;6.77;;;5.40;;
68947;SDS011;55996;49.546;7.400;2023-08-30T01:06:08;7.43;;;5.23;;
68947;SDS011;55996;49.546;7.400;2023-08-30T01:08:35;5.67;;;5.17;;
68947;SDS011;55996;49.546;7.400;2023-08-30T01:11:08;5.10;;;4.60;;
68947;SDS011;55996;49.546;7.400;2023-08-30T01:13:50;5.53;;;5.03;;
68947;SDS011;55996;49.546;7.400;2023-08-30T01:16:21;5.20;;;4.80;;
68947;SDS011;55996;49.546;7.400;2023-08-30T01:18:48;5.13;;;4.63;;
68947;SDS011;55996;49.546;7.400;2023-08-30T01:21:23;5.73;;;5.23;;
68947;SDS011;55996;49.546;7.400;2023-08-30T01:24:11;6.77;;;4.83;;
68947;SDS011;55996;49.546;7.400;2023-08-30T01:26:49;7.53;;;5.47;;
68947;SDS011;55996;49.546;7.400;2023-08-30T01:29:36;5.90;;;5.00;;
68947;SDS011;55996;49.546;7.400;2023-08-30T01:32:06;5.57;;;5.07;;
68947;SDS011;55996;49.546;7.400;2023-08-30T01:34:34;6.77;;;5.27;;
68947;SDS011;55996;49.546;7.400;2023-08-30T01:37:01;5.57;;;4.63;;
68947;SDS011;55996;49.546;7.400;2023-08-30T01:39:28;6.07;;;5.57;;
68947;SDS011;55996;49.546;7.400;2023-08-30T01:41:54;7.50;;;5.47;;
68947;SDS011;55996;49.546;7.400;2023-08-30T01:44:25;8.60;;;5.63;;
68947;SDS011;55996;49.546;7.400;2023-08-30T01:46:52;5.77;;;5.20;;
68947;SDS011;55996;49.546;7.400;2023-08-30T01:49:18;5.63;;;4.67;;
68947;SDS011;55996;49.546;7.400;2023-08-30T01:51:44;7.57;;;5.17;;
68947;SDS011;55996;49.546;7.400;2023-08-30T01:54:10;5.33;;;4.80;;
68947;SDS011;55996;49.546;7.400;2023-08-30T01:56:40;5.50;;;5.00;;
68947;SDS011;55996;49.546;7.400;2023-08-30T01:59:05;6.33;;;4.93;;
68947;SDS011;55996;49.546;7.400;2023-08-30T02:01:31;7.10;;;5.07;;
68947;SDS011;55996;49.546;7.400;2023-08-30T02:03:56;6.00;;;5.07;;
68947;SDS011;55996;49.546;7.400;2023-08-30T02:06:27;5.63;;;5.07;;
68947;SDS011;55996;49.546;7.400;2023-08-30T02:11:39;5.83;;;5.20;;
68947;SDS011;55996;49.546;7.400;2023-08-30T02:14:08;5.73;;;5.23;;
68947;SDS011;55996;49.546;7.400;2023-08-30T02:16:37;6.77;;;5.73;;
68947;SDS011;55996;49.546;7.400;2023-08-30T02:19:04;6.77;;;5.80;;
68947;SDS011;55996;49.546;7.400;2023-08-30T02:21:31;6.63;;;5.37;;
68947;SDS011;55996;49.546;7.400;2023-08-30T02:23:57;6.00;;;5.47;;
68947;SDS011;55996;49.546;7.400;2023-08-30T02:26:22;6.57;;;5.93;;
68947;SDS011;55996;49.546;7.400;2023-08-30T02:28:48;6.87;;;5.47;;
68947;SDS011;55996;49.546;7.400;2023-08-30T02:31:13;10.93;;;6.20;;
68947;SDS011;55996;49.546;7.400;2023-08-30T02:33:38;6.47;;;5.87;;
68947;SDS011;55996;49.546;7.400;2023-08-30T02:36:04;6.90;;;6.30;;
68947;SDS011;55996;49.546;7.400;2023-08-30T02:38:30;7.70;;;7.00;;
68947;SDS011;55996;49.546;7.400;2023-08-30T02:40:55;9.77;;;7.70;;
68947;SDS011;55996;49.546;7.400;2023-08-30T02:43:21;7.93;;;7.10;;
68947;SDS011;55996;49.546;7.400;2023-08-30T02:45:47;8.40;;;7.60;;
68947;SDS011;55996;49.546;7.400;2023-08-30T02:48:13;8.67;;;7.83;;
68947;SDS011;55996;49.546;7.400;2023-08-30T02:50:41;8.70;;;7.90;;
68947;SDS011;55996;49.546;7.400;2023-08-30T02:53:07;8.63;;;7.73;;
68947;SDS011;55996;49.546;7.400;2023-08-30T02:55:35;10.87;;;7.40;;
68947;SDS011;55996;49.546;7.400;2023-08-30T02:58:00;8.50;;;7.70;;
68947;SDS011;55996;49.546;7.400;2023-08-30T03:00:26;8.80;;;7.90;;
68947;SDS011;55996;49.546;7.400;2023-08-30T03:02:52;10.10;;;7.33;;
68947;SDS011;55996;49.546;7.400;2023-08-30T03:05:17;8.70;;;7.87;;
68947;SDS011;55996;49.546;7.400;2023-08-30T03:07:43;8.70;;;7.80;;
68947;SDS011;55996;49.546;7.400;2023-08-30T03:10:09;9.53;;;8.03;;
68947;SDS011;55996;49.546;7.400;2023-08-30T03:12:35;8.90;;;8.00;;
68947;SDS011;55996;49.546;7.400;2023-08-30T03:15:00;9.13;;;8.33;;
68947;SDS011;55996;49.546;7.400;2023-08-30T03:17:26;9.53;;;8.53;;
68947;SDS011;55996;49.546;7.400;2023-08-30T03:19:52;9.13;;;8.33;;
68947;SDS011;55996;49.546;7.400;2023-08-30T03:22:20;9.77;;;8.23;;
68947;SDS011;55996;49.546;7.400;2023-08-30T03:24:46;9.13;;;8.30;;
68947;SDS011;55996;49.546;7.400;2023-08-30T03:27:11;9.83;;;8.77;;
68947;SDS011;55996;49.546;7.400;2023-08-30T03:29:37;9.23;;;8.20;;
68947;SDS011;55996;49.546;7.400;2023-08-30T03:32:02;9.73;;;8.73;;
68947;SDS011;55996;49.546;7.400;2023-08-30T03:34:28;10.47;;;9.47;;
68947;SDS011;55996;49.546;7.400;2023-08-30T03:36:54;10.07;;;9.00;;
68947;SDS011;55996;49.546;7.400;2023-08-30T03:39:22;9.30;;;8.40;;
68947;SDS011;55996;49.546;7.400;2023-08-30T03:41:48;9.67;;;8.73;;
68947;SDS011;55996;49.546;7.400;2023-08-30T03:44:14;9.20;;;8.30;;
68947;SDS011;55996;49.546;7.400;2023-08-30T03:46:40;9.70;;;8.13;;
68947;SDS011;55996;49.546;7.400;2023-08-30T03:49:05;9.17;;;8.27;;
68947;SDS011;55996;49.546;7.400;2023-08-30T03:51:32;9.13;;;8.27;;
68947;SDS011;55996;49.546;7.400;2023-08-30T03:53:57;10.10;;;8.60;;
68947;SDS011;55996;49.546;7.400;2023-08-30T03:56:22;12.10;;;9.43;;
68947;SDS011;55996;49.546;7.400;2023-08-30T03:58:48;12.20;;;9.63;;
68947;SDS011;55996;49.546;7.400;2023-08-30T04:01:13;10.03;;;9.03;;
68947;SDS011;55996;49.546;7.400;2023-08-30T04:03:39;10.40;;;9.30;;
68947;SDS011;55996;49.546;7.400;2023-08-30T04:06:05;9.83;;;8.83;;
68947;SDS011;55996;49.546;7.400;2023-08-30T04:08:30;10.07;;;9.07;;
68947;SDS011;55996;49.546;7.400;2023-08-30T04:10:56;10.33;;;8.80;;
68947;SDS011;55996;49.546;7.400;2023-08-30T04:13:21;9.33;;;8.43;;
68947;SDS011;55996;49.546;7.400;2023-08-30T04:15:47;9.67;;;8.63;;
68947;SDS011;55996;49.546;7.400;2023-08-30T04:18:12;9.37;;;8.47;;
68947;SDS011;55996;49.546;7.400;2023-08-30T04:20:42;10.43;;;8.90;;
68947;SDS011;55996;49.546;7.400;2023-08-30T04:23:09;9.47;;;7.67;;
68947;SDS011;55996;49.546;7.400;2023-08-30T04:25:34;9.53;;;8.63;;
68947;SDS011;55996;49.546;7.400;2023-08-30T04:28:00;9.53;;;8.63;;
68947;SDS011;55996;49.546;7.400;2023-08-30T04:30:25;10.47;;;9.37;;
68947;SDS011;55996;49.546;7.400;2023-08-30T04:32:50;13.17;;;9.83;;
68947;SDS011;55996;49.546;7.400;2023-08-30T04:35:16;11.80;;;9.97;;
68947;SDS011;55996;49.546;7.400;2023-08-30T04:37:42;10.60;;;9.50;;
68947;SDS011;55996;49.546;7.400;2023-08-30T04:40:08;16.47;;;12.67;;
68947;SDS011;55996;49.546;7.400;2023-08-30T04:42:37;20.33;;;12.63;;
68947;SDS011;55996;49.546;7.400;2023-08-30T04:45:04;20.60;;;14.43;;
68947;SDS011;55996;49.546;7.400;2023-08-30T04:47:30;22.93;;;15.90;;
68947;SDS011;55996;49.546;7.400;2023-08-30T04:49:56;19.47;;;15.87;;
68947;SDS011;55996;49.546;7.400;2023-08-30T04:52:22;21.13;;;15.53;;
68947;SDS011;55996;49.546;7.400;2023-08-30T04:54:47;20.37;;;15.83;;
68947;SDS011;55996;49.546;7.400;2023-08-30T04:57:14;22.67;;;17.13;;
68947;SDS011;55996;49.546;7.400;2023-08-30T04:59:41;23.07;;;17.53;;
68947;SDS011;55996;49.546;7.400;2023-08-30T05:02:10;21.23;;;17.60;;
68947;SDS011;55996;49.546;7.400;2023-08-30T05:04:35;21.97;;;16.87;;
68947;SDS011;55996;49.546;7.400;2023-08-30T05:07:01;20.90;;;17.43;;
68947;SDS011;55996;49.546;7.400;2023-08-30T05:09:28;21.17;;;17.90;;
68947;SDS011;55996;49.546;7.400;2023-08-30T05:11:54;22.60;;;17.17;;
68947;SDS011;55996;49.546;7.400;2023-08-30T05:14:19;21.33;;;15.33;;
68947;SDS011;55996;49.546;7.400;2023-08-30T05:16:45;23.57;;;14.97;;
68947;SDS011;55996;49.546;7.400;2023-08-30T05:19:11;28.27;;;17.53;;
68947;SDS011;55996;49.546;7.400;2023-08-30T05:21:36;27.83;;;17.07;;
68947;SDS011;55996;49.546;7.400;2023-08-30T05:24:02;23.50;;;17.10;;
68947;SDS011;55996;49.546;7.400;2023-08-30T05:26:28;21.57;;;17.47;;
68947;SDS011;55996;49.546;7.400;2023-08-30T05:28:53;19.17;;;17.10;;
68947;SDS011;55996;49.546;7.400;2023-08-30T05:31:19;24.33;;;17.17;;
68947;SDS011;55996;49.546;7.400;2023-08-30T05:33:44;18.83;;;16.80;;
68947;SDS011;55996;49.546;7.400;2023-08-30T05:36:09;21.30;;;17.13;;
68947;SDS011;55996;49.546;7.400;2023-08-30T05:38:35;20.50;;;17.07;;
68947;SDS011;55996;49.546;7.400;2023-08-30T05:41:00;23.73;;;17.70;;
68947;SDS011;55996;49.546;7.400;2023-08-30T05:43:26;20.03;;;16.87;;
68947;SDS011;55996;49.546;7.400;2023-08-30T05:45:52;21.10;;;17.27;;
68947;SDS011;55996;49.546;7.400;2023-08-30T05:48:18;19.13;;;16.60;;
68947;SDS011;55996;49.546;7.400;2023-08-30T05:50:43;19.20;;;16.87;;
68947;SDS011;55996;49.546;7.400;2023-08-30T05:53:10;19.07;;;16.00;;
68947;SDS011;55996;49.546;7.400;2023-08-30T05:55:35;18.57;;;16.20;;
68947;SDS011;55996;49.546;7.400;2023-08-30T05:58:02;18.37;;;15.77;;
68947;SDS011;55996;49.546;7.400;2023-08-30T06:00:28;17.87;;;15.67;;
68947;SDS011;55996;49.546;7.400;2023-08-30T06:02:53;17.33;;;15.53;;
68947;SDS011;55996;49.546;7.400;2023-08-30T06:05:19;17.17;;;15.37;;
68947;SDS011;55996;49.546;7.400;2023-08-30T06:07:44;16.60;;;14.77;;
68947;SDS011;55996;49.546;7.400;2023-08-30T06:10:10;17.33;;;14.97;;
68947;SDS011;55996;49.546;7.400;2023-08-30T06:12:35;18.90;;;15.47;;
68947;SDS011;55996;49.546;7.400;2023-08-30T06:15:01;17.97;;;15.30;;
68947;SDS011;55996;49.546;7.400;2023-08-30T06:17:26;17.97;;;16.03;;
68947;SDS011;55996;49.546;7.400;2023-08-30T06:19:51;16.27;;;14.57;;
68947;SDS011;55996;49.546;7.400;2023-08-30T06:22:17;16.10;;;14.43;;
68947;SDS011;55996;49.546;7.400;2023-08-30T06:24:42;16.40;;;14.70;;
68947;SDS011;55996;49.546;7.400;2023-08-30T06:27:08;16.83;;;15.10;;
68947;SDS011;55996;49.546;7.400;2023-08-30T06:29:33;16.90;;;15.10;;
68947;SDS011;55996;49.546;7.400;2023-08-30T06:31:59;16.07;;;14.43;;
68947;SDS011;55996;49.546;7.400;2023-08-30T06:34:24;14.43;;;13.03;;
68947;SDS011;55996;49.546;7.400;2023-08-30T06:36:50;15.70;;;14.10;;
68947;SDS011;55996;49.546;7.400;2023-08-30T06:39:17;16.07;;;14.37;;
68947;SDS011;55996;49.546;7.400;2023-08-30T06:41:42;15.67;;;14.00;;
68947;SDS011;55996;49.546;7.400;2023-08-30T06:44:08;14.93;;;13.10;;
68947;SDS011;55996;49.546;7.400;2023-08-30T06:46:33;15.00;;;13.50;;
68947;SDS011;55996;49.546;7.400;2023-08-30T06:48:59;16.13;;;14.43;;
68947;SDS011;55996;49.546;7.400;2023-08-30T06:51:24;15.90;;;14.20;;
68947;SDS011;55996;49.546;7.400;2023-08-30T06:53:50;17.13;;;13.93;;
68947;SDS011;55996;49.546;7.400;2023-08-30T06:56:16;15.47;;;13.87;;
68947;SDS011;55996;49.546;7.400;2023-08-30T06:58:41;16.50;;;14.57;;
68947;SDS011;55996;49.546;7.400;2023-08-30T07:01:07;17.97;;;15.10;;
68947;SDS011;55996;49.546;7.400;2023-08-30T07:03:32;18.40;;;15.43;;
68947;SDS011;55996;49.546;7.400;2023-08-30T07:05:57;15.77;;;14.03;;
68947;SDS011;55996;49.546;7.400;2023-08-30T07:08:23;16.93;;;14.93;;
68947;SDS011;55996;49.546;7.400;2023-08-30T07:10:48;17.67;;;15.00;;
68947;SDS011;55996;49.546;7.400;2023-08-30T07:13:14;17.67;;;14.97;;
68947;SDS011;55996;49.546;7.400;2023-08-30T07:15:40;17.57;;;14.27;;
68947;SDS011;55996;49.546;7.400;2023-08-30T07:18:09;16.53;;;14.33;;
68947;SDS011;55996;49.546;7.400;2023-08-30T07:20:35;18.87;;;15.10;;
68947;SDS011;55996;49.546;7.400;2023-08-30T07:23:04;18.43;;;15.17;;
68947;SDS011;55996;49.546;7.400;2023-08-30T07:25:30;19.43;;;15.43;;
68947;SDS011;55996;49.546;7.400;2023-08-30T07:27:57;20.40;;;15.77;;
68947;SDS011;55996;49.546;7.400;2023-08-30T07:30:24;18.67;;;15.63;;
68947;SDS011;55996;49.546;7.400;2023-08-30T07:32:49;19.03;;;16.33;;
68947;SDS011;55996;49.546;7.400;2023-08-30T07:35:15;20.97;;;16.77;;
68947;SDS011;55996;49.546;7.400;2023-08-30T07:37:40;20.90;;;16.80;;
68947;SDS011;55996;49.546;7.400;2023-08-30T07:40:06;21.20;;;17.47;;
68947;SDS011;55996;49.546;7.400;2023-08-30T07:42:32;21.93;;;17.07;;
68947;SDS011;55996;49.546;7.400;2023-08-30T07:44:57;24.37;;;18.43;;
68947;SDS011;55996;49.546;7.400;2023-08-30T07:47:23;22.33;;;18.47;;
68947;SDS011;55996;49.546;7.400;2023-08-30T07:49:48;22.30;;;17.53;;
68947;SDS011;55996;49.546;7.400;2023-08-30T07:52:14;21.03;;;17.90;;
68947;SDS011;55996;49.546;7.400;2023-08-30T07:54:39;24.43;;;18.97;;
68947;SDS011;55996;49.546;7.400;2023-08-30T07:57:06;23.73;;;18.47;;
68947;SDS011;55996;49.546;7.400;2023-08-30T07:59:35;22.73;;;18.27;;
68947;SDS011;55996;49.546;7.400;2023-08-30T08:02:02;22.50;;;16.90;;
68947;SDS011;55996;49.546;7.400;2023-08-30T08:04:34;21.50;;;17.20;;
68947;SDS011;55996;49.546;7.400;2023-08-30T08:07:00;19.77;;;16.00;;
68947;SDS011;55996;49.546;7.400;2023-08-30T08:09:26;20.93;;;16.43;;
68947;SDS011;55996;49.546;7.400;2023-08-30T08:11:51;20.43;;;17.23;;
68947;SDS011;55996;49.546;7.400;2023-08-30T08:14:16;21.60;;;16.03;;
68947;SDS011;55996;49.546;7.400;2023-08-30T08:16:42;25.47;;;18.90;;
68947;SDS011;55996;49.546;7.400;2023-08-30T08:19:07;25.73;;;18.57;;
68947;SDS011;55996;49.546;7.400;2023-08-30T08:21:33;25.43;;;18.47;;
68947;SDS011;55996;49.546;7.400;2023-08-30T08:23:59;31.77;;;20.67;;
68947;SDS011;55996;49.546;7.400;2023-08-30T08:26:25;26.00;;;18.87;;
68947;SDS011;55996;49.546;7.400;2023-08-30T08:28:54;30.33;;;21.27;;
68947;SDS011;55996;49.546;7.400;2023-08-30T08:31:20;31.60;;;22.90;;
68947;SDS011;55996;49.546;7.400;2023-08-30T08:33:46;30.20;;;22.57;;
68947;SDS011;55996;49.546;7.400;2023-08-30T08:36:11;36.10;;;23.60;;
68947;SDS011;55996;49.546;7.400;2023-08-30T08:38:37;32.60;;;24.17;;
68947;SDS011;55996;49.546;7.400;2023-08-30T08:41:06;33.53;;;25.07;;
68947;SDS011;55996;49.546;7.400;2023-08-30T08:43:37;32.80;;;23.93;;
68947;SDS011;55996;49.546;7.400;2023-08-30T08:46:04;31.70;;;22.53;;
68947;SDS011;55996;49.546;7.400;2023-08-30T08:48:33;27.97;;;22.77;;
68947;SDS011;55996;49.546;7.400;2023-08-30T08:51:04;25.73;;;19.60;;
68947;SDS011;55996;49.546;7.400;2023-08-30T08:53:30;19.50;;;17.40;;
68947;SDS011;55996;49.546;7.400;2023-08-30T08:55:56;19.87;;;16.13;;
68947;SDS011;55996;49.546;7.400;2023-08-30T08:58:23;18.20;;;15.47;;
68947;SDS011;55996;49.546;7.400;2023-08-30T09:00:49;17.20;;;15.40;;
68947;SDS011;55996;49.546;7.400;2023-08-30T09:03:15;15.00;;;13.50;;
68947;SDS011;55996;49.546;7.400;2023-08-30T09:05:43;13.60;;;12.23;;
68947;SDS011;55996;49.546;7.400;2023-08-30T09:08:11;13.00;;;11.73;;
68947;SDS011;55996;49.546;7.400;2023-08-30T09:10:38;12.27;;;11.17;;
68947;SDS011;55996;49.546;7.400;2023-08-30T09:13:05;12.97;;;11.77;;
68947;SDS011;55996;49.546;7.400;2023-08-30T09:15:34;13.17;;;11.87;;
68947;SDS011;55996;49.546;7.400;2023-08-30T09:18:02;13.30;;;11.90;;
68947;SDS011;55996;49.546;7.400;2023-08-30T09:20:28;17.33;;;12.80;;
68947;SDS011;55996;49.546;7.400;2023-08-30T09:22:53;13.27;;;11.80;;
68947;SDS011;55996;49.546;7.400;2023-08-30T09:25:25;13.87;;;12.47;;
68947;SDS011;55996;49.546;7.400;2023-08-30T09:27:59;13.63;;;12.33;;
68947;SDS011;55996;49.546;7.400;2023-08-30T09:30:25;13.57;;;12.27;;
68947;SDS011;55996;49.546;7.400;2023-08-30T09:32:51;13.87;;;12.47;;
68947;SDS011;55996;49.546;7.400;2023-08-30T09:35:16;12.20;;;11.00;;
68947;SDS011;55996;49.546;7.400;2023-08-30T09:37:45;13.40;;;11.67;;
68947;SDS011;55996;49.546;7.400;2023-08-30T09:40:10;12.33;;;11.20;;
68947;SDS011;55996;49.546;7.400;2023-08-30T09:42:42;11.47;;;10.27;;
68947;SDS011;55996;49.546;7.400;2023-08-30T09:45:17;11.43;;;10.43;;
68947;SDS011;55996;49.546;7.400;2023-08-30T09:47:46;12.27;;;11.07;;
68947;SDS011;55996;49.546;7.400;2023-08-30T09:50:13;11.63;;;10.53;;
68947;SDS011;55996;49.546;7.400;2023-08-30T09:52:48;11.73;;;10.63;;
68947;SDS011;55996;49.546;7.400;2023-08-30T09:55:14;11.67;;;10.57;;
68947;SDS011;55996;49.546;7.400;2023-08-30T09:57:41;12.43;;;11.13;;
68947;SDS011;55996;49.546;7.400;2023-08-30T10:00:08;11.23;;;10.23;;
68947;SDS011;55996;49.546;7.400;2023-08-30T10:02:37;10.73;;;9.63;;
68947;SDS011;55996;49.546;7.400;2023-08-30T10:05:06;13.47;;;11.10;;
68947;SDS011;55996;49.546;7.400;2023-08-30T10:07:33;11.20;;;10.27;;
68947;SDS011;55996;49.546;7.400;2023-08-30T10:10:02;11.63;;;10.23;;
68947;SDS011;55996;49.546;7.400;2023-08-30T10:12:29;9.50;;;8.60;;
68947;SDS011;55996;49.546;7.400;2023-08-30T10:14:57;9.00;;;8.10;;
68947;SDS011;55996;49.546;7.400;2023-08-30T10:17:23;9.83;;;8.77;;
68947;SDS011;55996;49.546;7.400;2023-08-30T10:19:52;9.33;;;8.53;;
68947;SDS011;55996;49.546;7.400;2023-08-30T10:22:20;9.57;;;8.57;;
68947;SDS011;55996;49.546;7.400;2023-08-30T10:24:48;10.07;;;8.07;;
68947;SDS011;55996;49.546;7.400;2023-08-30T10:27:30;10.63;;;8.90;;
68947;SDS011;55996;49.546;7.400;2023-08-30T10:29:58;9.30;;;8.40;;
68947;SDS011;55996;49.546;7.400;2023-08-30T10:32:26;9.40;;;8.50;;
68947;SDS011;55996;49.546;7.400;2023-08-30T10:34:51;8.50;;;7.60;;
68947;SDS011;55996;49.546;7.400;2023-08-30T10:37:24;9.18;;;7.80;;
68947;SDS011;55996;49.546;7.400;2023-08-30T10:39:51;8.10;;;7.30;;
68947;SDS011;55996;49.546;7.400;2023-08-30T10:42:21;8.23;;;6.65;;
68947;SDS011;55996;49.546;7.400;2023-08-30T10:44:51;7.50;;;6.20;;
68947;SDS011;55996;49.546;7.400;2023-08-30T10:49:48;7.50;;;6.70;;
68947;SDS011;55996;49.546;7.400;2023-08-30T10:52:14;9.30;;;6.30;;
68947;SDS011;55996;49.546;7.400;2023-08-30T10:54:40;9.00;;;6.80;;
68947;SDS011;55996;49.546;7.400;2023-08-30T10:57:11;7.27;;;6.57;;
68947;SDS011;55996;49.546;7.400;2023-08-30T10:59:38;6.85;;;6.10;;
68947;SDS011;55996;49.546;7.400;2023-08-30T11:02:03;7.00;;;6.30;;
68947;SDS011;55996;49.546;7.400;2023-08-30T11:04:30;9.27;;;6.88;;
68947;SDS011;55996;49.546;7.400;2023-08-30T11:06:55;6.40;;;5.80;;
68947;SDS011;55996;49.546;7.400;2023-08-30T11:09:22;7.30;;;5.72;;
68947;SDS011;55996;49.546;7.400;2023-08-30T11:11:49;6.40;;;5.72;;
68947;SDS011;55996;49.546;7.400;2023-08-30T11:14:16;6.80;;;6.20;;
68947;SDS011;55996;49.546;7.400;2023-08-30T11:16:42;7.15;;;5.53;;
68947;SDS011;55996;49.546;7.400;2023-08-30T11:19:08;7.15;;;6.15;;
68947;SDS011;55996;49.546;7.400;2023-08-30T11:21:37;8.18;;;6.20;;
68947;SDS011;55996;49.546;7.400;2023-08-30T11:24:04;7.88;;;6.18;;
68947;SDS011;55996;49.546;7.400;2023-08-30T11:26:30;7.18;;;5.28;;
68947;SDS011;55996;49.546;7.400;2023-08-30T11:28:55;7.18;;;5.20;;
68947;SDS011;55996;49.546;7.400;2023-08-30T11:31:21;5.85;;;4.82;;
68947;SDS011;55996;49.546;7.400;2023-08-30T11:33:54;5.20;;;4.63;;
68947;SDS011;55996;49.546;7.400;2023-08-30T11:36:22;5.30;;;4.78;;
68947;SDS011;55996;49.546;7.400;2023-08-30T11:38:49;5.32;;;4.78;;
68947;SDS011;55996;49.546;7.400;2023-08-30T11:41:15;6.88;;;4.50;;
68947;SDS011;55996;49.546;7.400;2023-08-30T11:43:41;5.68;;;4.45;;
68947;SDS011;55996;49.546;7.400;2023-08-30T11:46:07;5.00;;;4.50;;
68947;SDS011;55996;49.546;7.400;2023-08-30T11:48:33;4.82;;;4.35;;
68947;SDS011;55996;49.546;7.400;2023-08-30T11:50:59;6.25;;;4.88;;
68947;SDS011;55996;49.546;7.400;2023-08-30T11:53:25;3.65;;;3.33;;
68947;SDS011;55996;49.546;7.400;2023-08-30T11:55:52;6.18;;;4.00;;
68947;SDS011;55996;49.546;7.400;2023-08-30T11:58:18;5.45;;;4.00;;
68947;SDS011;55996;49.546;7.400;2023-08-30T12:00:44;9.07;;;4.15;;
68947;SDS011;55996;49.546;7.400;2023-08-30T12:03:13;4.85;;;3.55;;
68947;SDS011;55996;49.546;7.400;2023-08-30T12:05:46;4.32;;;3.38;;
68947;SDS011;55996;49.546;7.400;2023-08-30T12:08:19;4.32;;;3.40;;
68947;SDS011;55996;49.546;7.400;2023-08-30T12:10:46;3.53;;;3.22;;
68947;SDS011;55996;49.546;7.400;2023-08-30T12:16:01;5.40;;;3.28;;
68947;SDS011;55996;49.546;7.400;2023-08-30T12:18:27;4.75;;;3.05;;
68947;SDS011;55996;49.546;7.400;2023-08-30T12:21:03;5.63;;;3.10;;
68947;SDS011;55996;49.546;7.400;2023-08-30T12:23:32;4.80;;;3.10;;
68947;SDS011;55996;49.546;7.400;2023-08-30T12:28:30;5.15;;;3.20;;
68947;SDS011;55996;49.546;7.400;2023-08-30T12:30:57;7.60;;;3.45;;
68947;SDS011;55996;49.546;7.400;2023-08-30T12:33:23;6.25;;;3.17;;
68947;SDS011;55996;49.546;7.400;2023-08-30T12:35:53;5.57;;;3.00;;
68947;SDS011;55996;49.546;7.400;2023-08-30T12:38:19;9.32;;;3.28;;
68947;SDS011;55996;49.546;7.400;2023-08-30T12:40:46;4.38;;;2.95;;
68947;SDS011;55996;49.546;7.400;2023-08-30T12:43:12;4.15;;;3.05;;
68947;SDS011;55996;49.546;7.400;2023-08-30T12:45:39;3.72;;;2.78;;
68947;SDS011;55996;49.546;7.400;2023-08-30T12:48:05;4.47;;;3.40;;
68947;SDS011;55996;49.546;7.400;2023-08-30T12:50:31;4.70;;;3.17;;
68947;SDS011;55996;49.546;7.400;2023-08-30T12:52:56;6.85;;;3.00;;
68947;SDS011;55996;49.546;7.400;2023-08-30T12:55:22;7.63;;;3.13;;
68947;SDS011;55996;49.546;7.400;2023-08-30T12:57:47;4.28;;;2.90;;
68947;SDS011;55996;49.546;7.400;2023-08-30T13:00:13;3.63;;;2.97;;
68947;SDS011;55996;49.546;7.400;2023-08-30T13:02:39;4.07;;;3.13;;
68947;SDS011;55996;49.546;7.400;2023-08-30T13:05:05;7.63;;;3.35;;
68947;SDS011;55996;49.546;7.400;2023-08-30T13:07:31;3.88;;;2.95;;
68947;SDS011;55996;49.546;7.400;2023-08-30T13:09:56;4.20;;;2.97;;
68947;SDS011;55996;49.546;7.400;2023-08-30T13:12:22;3.53;;;3.22;;
68947;SDS011;55996;49.546;7.400;2023-08-30T13:14:47;7.55;;;3.28;;
68947;SDS011;55996;49.546;7.400;2023-08-30T13:17:13;6.10;;;3.30;;
68947;SDS011;55996;49.546;7.400;2023-08-30T13:19:38;4.18;;;3.03;;
68947;SDS011;55996;49.546;7.400;2023-08-30T13:22:04;3.92;;;2.80;;
68947;SDS011;55996;49.546;7.400;2023-08-30T13:24:29;6.10;;;3.13;;
68947;SDS011;55996;49.546;7.400;2023-08-30T13:26:57;5.80;;;3.60;;
68947;SDS011;55996;49.546;7.400;2023-08-30T13:29:23;4.85;;;3.30;;
68947;SDS011;55996;49.546;7.400;2023-08-30T13:31:48;6.70;;;3.33;;
68947;SDS011;55996;49.546;7.400;2023-08-30T13:34:14;5.45;;;3.55;;
68947;SDS011;55996;49.546;7.400;2023-08-30T13:36:39;5.50;;;3.05;;
68947;SDS011;55996;49.546;7.400;2023-08-30T13:39:04;4.13;;;3.10;;
68947;SDS011;55996;49.546;7.400;2023-08-30T13:41:30;5.07;;;3.00;;
68947;SDS011;55996;49.546;7.400;2023-08-30T13:43:55;3.40;;;2.97;;
68947;SDS011;55996;49.546;7.400;2023-08-30T13:46:21;7.22;;;3.25;;
68947;SDS011;55996;49.546;7.400;2023-08-30T13:48:46;4.32;;;3.15;;
68947;SDS011;55996;49.546;7.400;2023-08-30T13:51:13;4.10;;;3.08;;
68947;SDS011;55996;49.546;7.400;2023-08-30T13:53:38;4.32;;;3.38;;
68947;SDS011;55996;49.546;7.400;2023-08-30T13:56:04;4.70;;;3.33;;
68947;SDS011;55996;49.546;7.400;2023-08-30T13:58:29;5.15;;;2.88;;
68947;SDS011;55996;49.546;7.400;2023-08-30T14:00:54;4.22;;;3.20;;
68947;SDS011;55996;49.546;7.400;2023-08-30T14:03:20;3.95;;;3.38;;
68947;SDS011;55996;49.546;7.400;2023-08-30T14:05:45;4.93;;;3.08;;
68947;SDS011;55996;49.546;7.400;2023-08-30T14:08:11;3.55;;;3.00;;
68947;SDS011;55996;49.546;7.400;2023-08-30T14:10:36;3.95;;;3.17;;
68947;SDS011;55996;49.546;7.400;2023-08-30T14:13:02;4.38;;;3.10;;
68947;SDS011;55996;49.546;7.400;2023-08-30T14:15:28;4.13;;;3.08;;
68947;SDS011;55996;49.546;7.400;2023-08-30T14:17:53;5.60;;;3.20;;
68947;SDS011;55996;49.546;7.400;2023-08-30T14:20:19;4.38;;;3.33;;
68947;SDS011;55996;49.546;7.400;2023-08-30T14:22:44;3.30;;;3.00;;
68947;SDS011;55996;49.546;7.400;2023-08-30T14:25:10;3.60;;;3.25;;
68947;SDS011;55996;49.546;7.400;2023-08-30T14:27:35;4.05;;;3.40;;
68947;SDS011;55996;49.546;7.400;2023-08-30T14:30:00;3.70;;;3.08;;
68947;SDS011;55996;49.546;7.400;2023-08-30T14:32:26;3.95;;;3.50;;
68947;SDS011;55996;49.546;7.400;2023-08-30T14:34:52;3.58;;;2.97;;
68947;SDS011;55996;49.546;7.400;2023-08-30T14:37:17;4.63;;;2.97;;
68947;SDS011;55996;49.546;7.400;2023-08-30T14:39:42;3.72;;;2.85;;
68947;SDS011;55996;49.546;7.400;2023-08-30T14:42:08;4.10;;;2.85;;